createdAt,value
2019-04-21T00:01:00.466Z,91.17
2019-04-21T00:03:35.544Z,94.17
2019-04-21T00:06:18.368Z,88.23
2019-04-21T00:08:57.650Z,87.23
2019-04-21T00:13:46.794Z,70.43
2019-04-21T00:16:11.980Z,85.33
2019-04-21T00:19:08.130Z,85.30
2019-04-21T00:21:39.443Z,80.07
2019-04-21T00:24:23.928Z,78.20
2019-04-21T00:27:17.435Z,83.67
2019-04-21T00:29:40.878Z,81.73
2019-04-21T00:32:02.994Z,72.77
2019-04-21T00:34:19.606Z,86.17
2019-04-21T00:37:01.206Z,100.77
2019-04-21T00:39:49.606Z,90.70
2019-04-21T00:42:14.085Z,90.33
2019-04-21T00:44:38.086Z,87.47
2019-04-21T00:47:13.927Z,75.80
2019-04-21T00:49:53.969Z,70.33
2019-04-21T00:52:56.601Z,72.73
2019-04-21T00:58:00.028Z,71.00
2019-04-21T01:00:30.892Z,85.23
2019-04-21T01:03:06.697Z,112.20
2019-04-21T01:05:38.657Z,112.87
2019-04-21T01:08:04.879Z,105.30
2019-04-21T01:10:28.949Z,113.20
2019-04-21T01:13:09.643Z,112.10
2019-04-21T01:15:47.448Z,109.33
2019-04-21T01:18:16.633Z,113.50
2019-04-21T01:20:23.705Z,118.73
2019-04-21T01:22:53.812Z,112.60
2019-04-21T01:25:34.680Z,108.80
2019-04-21T01:28:13.609Z,97.50
2019-04-21T01:30:48.878Z,104.23
2019-04-21T01:33:21.930Z,95.97
2019-04-21T01:35:48.214Z,86.27
2019-04-21T01:38:32.594Z,89.70
2019-04-21T01:41:00.659Z,100.90
2019-04-21T01:43:27.786Z,93.67
2019-04-21T01:45:56.503Z,84.90
2019-04-21T01:48:27.267Z,83.03
2019-04-21T01:50:55.310Z,42.07
2019-04-21T01:53:48.336Z,38.20
2019-04-21T01:56:24.203Z,48.27
2019-04-21T01:58:46.470Z,43.13
2019-04-21T02:01:30.123Z,66.10
2019-04-21T02:04:15.412Z,82.03
2019-04-21T02:06:45.689Z,40.13
2019-04-21T02:09:02.243Z,44.43
2019-04-21T02:11:35.504Z,46.50
2019-04-21T02:14:11.812Z,39.13
2019-04-21T02:16:40.734Z,39.50
2019-04-21T02:19:04.813Z,31.83
2019-04-21T02:21:36.983Z,30.67
2019-04-21T02:24:23.560Z,30.80
2019-04-21T02:26:47.446Z,37.07
2019-04-21T02:29:21.844Z,37.07
2019-04-21T02:32:01.768Z,38.90
2019-04-21T02:34:37.987Z,31.43
2019-04-21T02:37:17.720Z,24.80
2019-04-21T02:42:05.406Z,22.37
2019-04-21T02:44:42.901Z,24.97
2019-04-21T02:47:12.229Z,19.13
2019-04-21T02:49:56.523Z,23.10
2019-04-21T03:00:00.134Z,14.80
2019-04-21T03:02:35.185Z,19.80
2019-04-21T03:05:21.152Z,46.77
2019-04-21T03:07:55.345Z,28.90
2019-04-21T03:10:25.709Z,37.17
2019-04-21T03:12:56.965Z,41.90
2019-04-21T03:15:31.517Z,32.00
2019-04-21T03:18:00.341Z,42.50
2019-04-21T03:20:36.199Z,41.87
2019-04-21T03:23:08.856Z,40.57
2019-04-21T03:25:43.225Z,37.63
2019-04-21T03:28:11.254Z,33.93
2019-04-21T03:31:12.220Z,32.43
2019-04-21T03:34:02.601Z,38.87
2019-04-21T03:36:12.846Z,29.03
2019-04-21T03:40:39.954Z,35.03
2019-04-21T03:43:20.271Z,35.87
2019-04-21T03:53:24.997Z,36.63
2019-04-21T03:58:39.470Z,40.27
2019-04-21T04:04:29.996Z,39.23
2019-04-21T04:12:12.487Z,27.27
2019-04-21T04:14:44.181Z,28.97
2019-04-21T04:17:16.765Z,40.17
2019-04-21T04:19:44.609Z,47.97
2019-04-21T04:22:27.070Z,40.73
2019-04-21T04:25:07.350Z,43.10
2019-04-21T04:30:04.303Z,62.93
2019-04-21T04:32:28.511Z,70.83
2019-04-21T04:35:14.514Z,78.87
2019-04-21T04:37:45.038Z,93.60
2019-04-21T04:40:10.523Z,83.83
2019-04-21T04:45:17.604Z,85.10
2019-04-21T04:47:46.654Z,80.67
2019-04-21T04:50:09.945Z,110.07
2019-04-21T04:52:58.683Z,76.13
2019-04-21T04:55:19.038Z,75.40
2019-04-21T04:58:04.680Z,75.57
2019-04-21T05:05:29.308Z,60.87
2019-04-21T05:08:16.584Z,42.23
2019-04-21T05:10:38.519Z,36.10
2019-04-21T05:13:02.305Z,37.33
2019-04-21T05:15:37.876Z,41.30
2019-04-21T05:20:37.026Z,47.37
2019-04-21T05:22:58.212Z,50.70
2019-04-21T05:25:30.666Z,43.53
2019-04-21T05:27:56.445Z,34.13
2019-04-21T05:30:45.077Z,23.73
2019-04-21T05:33:19.014Z,24.30
2019-04-21T05:35:52.024Z,46.00
2019-04-21T05:38:39.123Z,25.77
2019-04-21T05:41:00.195Z,21.57
2019-04-21T05:43:39.065Z,20.77
2019-04-21T05:46:13.367Z,20.40
2019-04-21T05:48:54.790Z,20.53
2019-04-21T05:51:22.256Z,22.27
2019-04-21T05:53:56.150Z,20.80
2019-04-21T05:56:30.627Z,25.20
2019-04-21T05:58:58.067Z,16.33
2019-04-21T06:01:50.323Z,18.90
2019-04-21T06:04:12.299Z,24.93
2019-04-21T06:06:43.700Z,18.53
2019-04-21T06:09:08.272Z,23.53
2019-04-21T06:11:40.708Z,24.60
2019-04-21T06:14:14.511Z,23.07
2019-04-21T06:16:54.335Z,18.73
2019-04-21T06:19:15.090Z,20.33
2019-04-21T06:21:45.460Z,19.00
2019-04-21T06:24:18.814Z,19.57
2019-04-21T06:27:04.923Z,21.40
2019-04-21T06:29:25.467Z,32.70
2019-04-21T06:34:41.428Z,23.53
2019-04-21T06:37:21.856Z,45.60
2019-04-21T06:39:52.593Z,18.10
2019-04-21T06:42:09.210Z,17.73
2019-04-21T06:44:54.167Z,17.87
2019-04-21T06:47:26.025Z,24.03
2019-04-21T06:49:45.806Z,17.17
2019-04-21T06:52:42.401Z,20.37
2019-04-21T06:54:56.068Z,16.73
2019-04-21T06:57:21.792Z,17.17
2019-04-21T06:59:51.053Z,14.70
2019-04-21T07:05:03.670Z,14.53
2019-04-21T07:07:33.534Z,14.53
2019-04-21T07:10:09.101Z,14.97
2019-04-21T07:12:28.695Z,13.27
2019-04-21T07:15:03.338Z,13.97
2019-04-21T07:17:32.535Z,15.33
2019-04-21T07:22:43.716Z,16.23
2019-04-21T07:25:16.661Z,16.17
2019-04-21T07:27:47.823Z,15.23
2019-04-21T07:30:23.089Z,16.17
2019-04-21T07:32:55.279Z,13.20
2019-04-21T07:35:31.688Z,12.37
2019-04-21T07:37:52.267Z,15.27
2019-04-21T07:40:17.394Z,16.77
2019-04-21T07:42:51.466Z,15.70
2019-04-21T07:45:22.734Z,16.23
2019-04-21T07:48:03.359Z,16.03
2019-04-21T07:50:38.232Z,15.17
2019-04-21T07:53:36.804Z,13.97
2019-04-21T07:55:41.094Z,13.87
2019-04-21T07:58:26.589Z,15.17
2019-04-21T08:01:07.032Z,13.43
2019-04-21T08:03:34.907Z,17.53
2019-04-21T08:06:05.009Z,14.40
2019-04-21T08:08:34.266Z,15.87
2019-04-21T08:11:07.404Z,11.23
2019-04-21T08:13:44.897Z,13.43
2019-04-21T08:16:17.503Z,29.80
2019-04-21T08:18:46.780Z,79.20
2019-04-21T08:21:19.623Z,14.13
2019-04-21T08:23:48.386Z,11.63
2019-04-21T08:26:13.838Z,13.20
2019-04-21T08:28:53.741Z,14.40
2019-04-21T08:31:34.440Z,11.67
2019-04-21T08:34:01.712Z,11.00
2019-04-21T08:36:27.699Z,12.20
2019-04-21T08:39:01.057Z,15.37
2019-04-21T08:41:31.346Z,12.73
2019-04-21T08:43:56.130Z,10.10
2019-04-21T08:46:38.696Z,13.70
2019-04-21T08:49:08.041Z,13.97
2019-04-21T08:51:39.600Z,11.57
2019-04-21T08:54:15.277Z,11.37
2019-04-21T08:57:06.152Z,11.20
2019-04-21T08:59:40.438Z,12.70
2019-04-21T09:02:16.252Z,11.03
2019-04-21T09:04:50.736Z,11.27
2019-04-21T09:09:55.849Z,12.47
2019-04-21T09:12:22.687Z,24.63
2019-04-21T09:14:54.235Z,11.87
2019-04-21T09:17:22.415Z,14.53
2019-04-21T09:20:04.005Z,15.33
2019-04-21T09:22:30.681Z,13.30
2019-04-21T09:24:55.731Z,11.57
2019-04-21T09:27:30.784Z,11.47
2019-04-21T09:29:52.359Z,11.97
2019-04-21T09:32:23.225Z,16.83
2019-04-21T09:34:52.426Z,12.10
2019-04-21T09:37:32.605Z,13.27
2019-04-21T09:39:55.937Z,11.83
2019-04-21T09:42:33.194Z,14.50
2019-04-21T09:45:00.649Z,15.20
2019-04-21T09:47:36.535Z,10.87
2019-04-21T09:50:01.868Z,9.50
2019-04-21T09:52:39.666Z,12.07
2019-04-21T09:55:10.267Z,10.17
2019-04-21T09:57:43.324Z,11.27
2019-04-21T10:00:15.154Z,12.90
2019-04-21T10:02:51.635Z,9.67
2019-04-21T10:05:12.560Z,17.63
2019-04-21T10:07:44.218Z,13.90
2019-04-21T10:10:15.017Z,8.30
2019-04-21T10:12:45.488Z,8.97
2019-04-21T10:15:16.526Z,9.57
2019-04-21T10:18:00.613Z,7.47
2019-04-21T10:20:30.925Z,17.03
2019-04-21T10:23:00.927Z,9.73
2019-04-21T10:25:30.962Z,8.83
2019-04-21T10:28:01.325Z,7.70
2019-04-21T10:30:31.380Z,6.93
2019-04-21T10:33:01.479Z,9.40
2019-04-21T10:35:32.870Z,7.47
2019-04-21T10:38:14.609Z,7.93
2019-04-21T10:40:37.129Z,8.20
2019-04-21T10:43:09.950Z,9.57
2019-04-21T10:45:39.181Z,10.70
2019-04-21T10:48:10.813Z,7.47
2019-04-21T10:50:41.237Z,8.53
2019-04-21T10:53:13.379Z,8.27
2019-04-21T10:56:00.364Z,9.53
2019-04-21T10:58:18.314Z,8.50
2019-04-21T11:00:52.845Z,9.73
2019-04-21T11:03:42.836Z,10.60
2019-04-21T11:06:14.809Z,9.27
2019-04-21T11:08:48.590Z,9.07
2019-04-21T11:11:16.654Z,10.40
2019-04-21T11:13:46.654Z,9.07
2019-04-21T11:16:17.260Z,7.87
2019-04-21T11:18:48.292Z,7.80
2019-04-21T11:21:18.787Z,8.63
2019-04-21T11:23:50.030Z,12.60
2019-04-21T11:26:20.159Z,10.63
2019-04-21T11:28:50.546Z,10.67
2019-04-21T11:31:20.956Z,11.23
2019-04-21T11:33:51.271Z,11.67
2019-04-21T11:36:21.630Z,8.50
2019-04-21T11:39:22.839Z,12.73
2019-04-21T11:41:41.634Z,26.73
2019-04-21T11:44:12.111Z,12.80
2019-04-21T11:46:42.619Z,9.80
2019-04-21T11:49:12.862Z,10.73
2019-04-21T11:51:42.935Z,15.60
2019-04-21T11:54:13.059Z,9.13
2019-04-21T11:56:43.255Z,11.90
2019-04-21T11:59:13.476Z,10.00
2019-04-21T12:01:43.588Z,10.00
2019-04-21T12:04:13.929Z,12.53
2019-04-21T12:06:47.242Z,13.70
2019-04-21T12:09:16.800Z,9.40
2019-04-21T12:11:47.406Z,8.30
2019-04-21T12:14:18.338Z,25.13
2019-04-21T12:16:49.305Z,11.47
2019-04-21T12:19:20.532Z,10.37
2019-04-21T12:22:02.392Z,7.83
2019-04-21T12:24:24.892Z,23.57
2019-04-21T12:26:56.006Z,6.53
2019-04-21T12:29:26.952Z,12.03
2019-04-21T12:31:59.426Z,9.00
2019-04-21T12:34:30.179Z,10.53
2019-04-21T12:37:01.170Z,10.63
2019-04-21T12:39:32.720Z,8.67
2019-04-21T12:42:04.634Z,10.03
2019-04-21T12:44:34.922Z,10.13
2019-04-21T12:47:05.841Z,10.30
2019-04-21T12:49:36.008Z,11.40
2019-04-21T12:52:06.184Z,10.80
2019-04-21T12:54:37.646Z,12.10
2019-04-21T12:57:07.882Z,10.90
2019-04-21T12:59:39.509Z,12.13
2019-04-21T13:02:09.730Z,9.03
2019-04-21T13:04:40.100Z,8.87
2019-04-21T13:07:10.183Z,12.30
2019-04-21T13:09:40.287Z,9.90
2019-04-21T13:12:11.070Z,11.63
2019-04-21T13:14:42.105Z,15.37
2019-04-21T13:17:13.121Z,13.53
2019-04-21T13:19:43.622Z,45.63
2019-04-21T13:22:14.124Z,9.07
2019-04-21T13:24:44.353Z,9.37
2019-04-21T13:27:15.607Z,9.27
2019-04-21T13:29:46.269Z,13.53
2019-04-21T13:32:16.557Z,8.57
2019-04-21T13:34:47.792Z,9.17
2019-04-21T13:37:19.388Z,7.87
2019-04-21T13:40:13.145Z,10.13
2019-04-21T13:42:36.237Z,9.67
2019-04-21T13:45:00.933Z,7.33
2019-04-21T13:47:30.855Z,8.80
2019-04-21T13:50:02.895Z,6.27
2019-04-21T13:52:33.156Z,8.53
2019-04-21T13:55:03.475Z,7.97
2019-04-21T13:57:34.625Z,8.13
2019-04-21T14:00:09.150Z,6.73
2019-04-21T14:02:40.656Z,4.17
2019-04-21T14:05:13.493Z,7.83
2019-04-21T14:07:44.019Z,8.30
2019-04-21T14:10:16.094Z,31.30
2019-04-21T14:12:46.921Z,7.70
2019-04-21T14:15:20.133Z,9.77
2019-04-21T14:17:50.919Z,10.30
2019-04-21T14:20:21.573Z,7.63
2019-04-21T14:22:51.986Z,7.87
2019-04-21T14:25:22.138Z,8.90
2019-04-21T14:27:53.983Z,10.80
2019-04-21T14:30:24.364Z,8.83
2019-04-21T14:32:54.385Z,7.40
2019-04-21T14:35:25.137Z,11.47
2019-04-21T14:37:56.555Z,7.97
2019-04-21T14:40:29.495Z,7.73
2019-04-21T14:42:58.431Z,7.67
2019-04-21T14:45:34.541Z,6.53
2019-04-21T14:48:09.253Z,7.10
2019-04-21T14:50:42.042Z,30.73
2019-04-21T14:53:16.462Z,7.33
2019-04-21T14:55:46.853Z,14.93
2019-04-21T14:58:17.197Z,7.30
2019-04-21T15:00:59.940Z,5.73
2019-04-21T15:03:30.102Z,6.67
2019-04-21T15:06:01.113Z,4.40
2019-04-21T15:08:31.384Z,6.03
2019-04-21T15:11:01.499Z,5.47
2019-04-21T15:13:32.322Z,5.43
2019-04-21T15:16:02.769Z,5.50
2019-04-21T15:18:32.868Z,5.70
2019-04-21T15:21:03.756Z,3.87
2019-04-21T15:23:34.003Z,6.27
2019-04-21T15:26:04.260Z,6.17
2019-04-21T15:28:36.970Z,5.33
2019-04-21T15:31:05.869Z,4.93
2019-04-21T15:33:36.965Z,5.97
2019-04-21T15:36:07.180Z,7.53
2019-04-21T15:38:38.080Z,5.43
2019-04-21T15:41:10.602Z,4.60
2019-04-21T15:43:40.561Z,5.33
2019-04-21T15:46:11.025Z,5.73
2019-04-21T15:48:41.308Z,6.67
2019-04-21T15:51:11.308Z,5.17
2019-04-21T15:53:43.851Z,5.00
2019-04-21T15:56:17.227Z,5.93
2019-04-21T15:59:01.148Z,5.90
2019-04-21T16:01:36.604Z,5.83
2019-04-21T16:04:08.027Z,5.97
2019-04-21T16:06:39.310Z,5.70
2019-04-21T16:09:14.989Z,6.97
2019-04-21T16:11:42.198Z,6.07
2019-04-21T16:14:12.154Z,6.87
2019-04-21T16:16:43.264Z,3.90
2019-04-21T16:19:14.321Z,6.50
2019-04-21T16:21:46.438Z,6.13
2019-04-21T16:24:16.450Z,7.33
2019-04-21T16:26:46.914Z,6.63
2019-04-21T16:29:17.404Z,9.73
2019-04-21T16:31:48.919Z,29.17
2019-04-21T16:34:19.919Z,46.30
2019-04-21T16:36:50.066Z,16.97
2019-04-21T16:39:20.010Z,16.60
2019-04-21T16:41:50.094Z,14.57
2019-04-21T16:44:20.977Z,15.47
2019-04-21T16:46:51.669Z,64.87
2019-04-21T16:49:22.084Z,27.03
2019-04-21T16:51:54.025Z,16.43
2019-04-21T16:54:26.229Z,10.63
2019-04-21T16:57:15.293Z,13.63
2019-04-21T16:59:48.488Z,10.27
2019-04-21T17:02:18.736Z,10.93
2019-04-21T17:04:48.685Z,14.00
2019-04-21T17:07:19.908Z,14.17
2019-04-21T17:09:50.696Z,11.20
2019-04-21T17:12:22.752Z,13.27
2019-04-21T17:15:08.711Z,8.37
2019-04-21T17:17:47.496Z,8.07
2019-04-21T17:20:11.630Z,8.33
2019-04-21T17:22:28.004Z,7.43
2019-04-21T17:24:58.553Z,11.73
2019-04-21T17:27:31.217Z,12.93
2019-04-21T17:30:04.237Z,15.10
2019-04-21T17:32:40.115Z,16.47
2019-04-21T17:35:12.157Z,163.50
2019-04-21T17:37:45.589Z,37.20
2019-04-21T17:40:26.333Z,30.50
2019-04-21T17:43:12.655Z,332.00
2019-04-21T17:45:44.812Z,357.37
2019-04-21T17:48:34.906Z,123.53
2019-04-21T17:51:21.328Z,25.97
2019-04-21T17:54:13.534Z,40.50
2019-04-21T17:58:22.079Z,49.73
2019-04-21T18:00:28.782Z,60.70
2019-04-21T18:02:53.440Z,17.67
2019-04-21T18:05:31.965Z,16.33
2019-04-21T18:08:07.056Z,19.50
2019-04-21T18:10:45.669Z,12.40
2019-04-21T18:13:41.955Z,10.47
2019-04-21T18:16:25.099Z,20.27
2019-04-21T18:18:50.667Z,29.07
2019-04-21T18:21:24.909Z,32.37
2019-04-21T18:24:07.400Z,60.33
2019-04-21T18:26:40.615Z,51.83
2019-04-21T18:29:18.644Z,34.27
2019-04-21T18:31:57.988Z,27.90
2019-04-21T18:34:44.298Z,21.40
2019-04-21T18:37:27.111Z,26.87
2019-04-21T18:40:03.748Z,23.33
2019-04-21T18:43:38.339Z,20.57
2019-04-21T18:49:00.639Z,22.90
2019-04-21T18:51:58.702Z,26.20
2019-04-21T18:54:41.763Z,28.50
2019-04-21T18:57:17.196Z,29.60
2019-04-21T18:59:47.663Z,34.07
2019-04-21T19:02:22.349Z,37.63
2019-04-21T19:04:59.752Z,51.50
2019-04-21T19:07:48.023Z,54.17
2019-04-21T19:13:19.898Z,63.57
2019-04-21T19:15:30.034Z,65.87
2019-04-21T19:18:32.521Z,97.47
2019-04-21T19:20:50.334Z,169.70
2019-04-21T19:23:04.568Z,53.60
2019-04-21T19:25:42.603Z,307.73
2019-04-21T19:28:16.363Z,147.57
2019-04-21T19:30:57.650Z,403.17
2019-04-21T19:33:28.530Z,218.73
2019-04-21T19:35:45.599Z,328.93
2019-04-21T19:38:30.572Z,247.50
2019-04-21T19:41:10.420Z,428.17
2019-04-21T19:43:45.715Z,1113.77
2019-04-21T19:46:19.345Z,953.97
2019-04-21T19:48:59.120Z,389.20
2019-04-21T19:51:18.048Z,341.53
2019-04-21T19:53:48.087Z,114.50
2019-04-21T19:56:11.984Z,402.90
2019-04-21T19:58:47.583Z,407.13
2019-04-21T20:01:21.350Z,259.00
2019-04-21T20:03:57.126Z,288.37
2019-04-21T20:06:43.993Z,214.77
2019-04-21T20:09:19.897Z,86.23
2019-04-21T20:11:44.403Z,47.80
2019-04-21T20:14:44.845Z,33.93
2019-04-21T20:16:53.122Z,42.23
2019-04-21T20:19:15.209Z,164.37
2019-04-21T20:21:45.117Z,127.00
2019-04-21T20:24:24.417Z,136.07
2019-04-21T20:27:02.232Z,131.97
2019-04-21T20:29:56.162Z,187.63
2019-04-21T20:32:36.263Z,67.80
2019-04-21T20:35:07.061Z,48.90
2019-04-21T20:37:31.696Z,41.40
2019-04-21T20:39:58.469Z,50.77
2019-04-21T20:42:40.334Z,55.97
2019-04-21T20:45:28.866Z,42.73
2019-04-21T20:47:34.961Z,47.03
2019-04-21T20:50:17.701Z,30.03
2019-04-21T20:52:53.797Z,24.60
2019-04-21T20:55:20.048Z,36.67
2019-04-21T20:57:53.775Z,34.33
2019-04-21T21:00:32.641Z,45.80
2019-04-21T21:03:15.254Z,37.87
2019-04-21T21:05:37.629Z,32.60
2019-04-21T21:08:21.061Z,27.60
2019-04-21T21:10:49.238Z,19.43
2019-04-21T21:13:30.045Z,19.20
2019-04-21T21:16:09.534Z,20.50
2019-04-21T21:18:38.026Z,24.57
2019-04-21T21:21:06.659Z,13.37
2019-04-21T21:26:15.965Z,10.17
2019-04-21T21:28:39.083Z,15.73
2019-04-21T21:31:13.000Z,21.27
2019-04-21T21:34:08.207Z,7.80
2019-04-21T21:36:27.292Z,10.47
2019-04-21T21:39:01.220Z,8.17
2019-04-21T21:41:26.508Z,43.83
2019-04-21T21:44:01.839Z,39.07
2019-04-21T21:46:41.651Z,30.13
2019-04-21T21:49:07.590Z,17.20
2019-04-21T21:51:44.990Z,33.80
2019-04-21T21:54:03.090Z,9.13
2019-04-21T21:56:36.518Z,10.37
2019-04-21T21:59:16.035Z,9.30
2019-04-21T22:01:46.990Z,10.47
2019-04-21T22:04:20.804Z,12.97
2019-04-21T22:06:55.383Z,10.00
2019-04-21T22:09:18.588Z,6.93
2019-04-21T22:11:53.584Z,7.13
2019-04-21T22:14:25.904Z,5.60
2019-04-21T22:17:10.965Z,9.13
2019-04-21T22:19:48.902Z,7.40
2019-04-21T22:22:15.612Z,9.10
2019-04-21T22:24:43.982Z,12.57
2019-04-21T22:26:59.243Z,10.97
2019-04-21T22:29:37.837Z,9.47
2019-04-21T22:32:09.494Z,8.13
2019-04-21T22:34:38.690Z,7.60
2019-04-21T22:37:21.188Z,6.53
2019-04-21T22:39:56.904Z,9.13
2019-04-21T22:42:17.330Z,7.00
2019-04-21T22:44:40.619Z,13.17
2019-04-21T22:47:16.910Z,13.93
2019-04-21T22:49:42.563Z,11.47
2019-04-21T22:52:18.713Z,11.20
2019-04-21T22:54:46.660Z,9.30
2019-04-21T22:57:19.861Z,11.70
2019-04-21T22:59:55.201Z,11.93
2019-04-21T23:02:25.914Z,10.80
2019-04-21T23:04:57.633Z,8.33
2019-04-21T23:07:25.349Z,8.20
2019-04-21T23:09:55.552Z,7.60
2019-04-21T23:12:30.693Z,10.97
2019-04-21T23:15:04.347Z,10.90
2019-04-21T23:17:50.677Z,8.57
2019-04-21T23:20:25.680Z,8.23
2019-04-21T23:23:00.906Z,11.93
2019-04-21T23:25:25.108Z,8.47
2019-04-21T23:27:56.285Z,10.03
2019-04-21T23:30:33.992Z,9.40
2019-04-21T23:32:51.394Z,9.43
2019-04-21T23:35:21.807Z,11.33
2019-04-21T23:37:55.728Z,10.90
2019-04-21T23:40:21.505Z,8.23
2019-04-21T23:42:49.474Z,10.30
2019-04-21T23:45:27.432Z,10.13
2019-04-21T23:48:01.677Z,10.97
2019-04-21T23:50:34.312Z,8.97
2019-04-21T23:52:55.413Z,8.13
2019-04-21T23:55:25.609Z,8.97
2019-04-21T23:58:06.166Z,13.00
